Dahinda, Illinois
Current Conditions -  °F | °C
As of 8:55 AM on Wednesday 26 Nov 2014 (Local Time) from KGBG Reporting Station
Clear Clear  
Wind Chill: 17°   Ceiling: Unl
Heat Index: 26°   Visibility: 7mi
Dew Point: 25°   Wind: 9mph
Humidity: 94%   Direction: 110°ESE
Pressure: 30.03"   Gusts: NA
Location:  40.92°N, 90.11°W
Report Text: KGBG 261455Z AUTO 11008KT 7SM CLR M03/M04 A3003 RMK AO2 T10311039
Loading
Personal Weather Stations






























Interactive Weather Map New forecast layout! Learn more

10-Day Weather Forecast

Advertisements
Track Severe Weather on mobile